Time;durP1;ratioP1;P1;durP2;ratioP2;P2;SDS_P1;SDS_P2;PMS_P1;PMS_P2;Temp;Humidity;BMP_temperature;BMP_pressure;BME280_temperature;BME280_humidity;BME280_pressure;Samples;Min_cycle;Max_cycle;Signal;HPM_P1;HPM_P2
2022/09/16 00:01:28;;;;;;;8.27;2.03;;;;;;;28.18;29.71;100214.84;5066333;28;20404;-55
2022/09/16 00:03:55;;;;;;;6.20;1.57;;;;;;;28.14;29.83;100213.00;5066766;28;20495;-56
2022/09/16 00:08:28;;;;;;;4.10;1.70;;;;;;;28.12;29.95;100218.75;5078793;28;20477;-56
2022/09/16 00:10:59;;;;;;;7.10;2.03;;;;;;;28.10;29.96;100212.00;5066270;28;20800;-56
2022/09/16 00:13:24;;;;;;;7.88;2.15;;;;;;;28.00;30.11;100205.63;5066012;28;20771;-56
2022/09/16 00:15:50;;;;;;;7.22;2.00;;;;;;;28.00;30.23;100215.69;5066478;28;20388;-56
2022/09/16 00:18:15;;;;;;;6.33;1.80;;;;;;;27.93;30.83;100220.72;5066150;28;20416;-56
2022/09/16 00:20:49;;;;;;;6.37;1.80;;;;;;;27.94;30.67;100231.31;5066162;28;20822;-55
2022/09/16 00:23:14;;;;;;;7.35;1.90;;;;;;;27.89;30.75;100223.19;5066078;28;20469;-56
2022/09/16 00:25:40;;;;;;;7.95;2.20;;;;;;;27.85;30.85;100222.19;5065185;28;20384;-56
2022/09/16 00:28:06;;;;;;;7.30;2.28;;;;;;;27.82;30.71;100220.88;5065884;28;20457;-56
2022/09/16 00:30:32;;;;;;;7.85;2.00;;;;;;;27.77;31.26;100223.66;5065953;28;20873;-56
2022/09/16 00:34:20;;;;;;;9.98;2.10;;;;;;;27.73;31.32;100244.44;5088055;27;20410;-56
2022/09/16 00:36:45;;;;;;;7.93;1.98;;;;;;;27.71;31.35;100243.09;5066259;28;20411;-55
2022/09/16 00:39:11;;;;;;;6.05;2.03;;;;;;;27.64;31.72;100236.13;5066576;28;20455;-55
2022/09/16 00:41:37;;;;;;;5.00;1.80;;;;;;;27.60;31.63;100235.13;5053708;28;20472;-55
2022/09/16 00:44:05;;;;;;;8.17;2.03;;;;;;;27.53;31.99;100242.00;5065055;28;20415;-55
2022/09/16 00:51:32;;;;;;;9.77;2.35;;;;;;;27.41;32.44;100245.19;5064984;28;20478;-56
2022/09/16 00:54:02;;;;;;;9.05;2.10;;;;;;;27.40;32.37;100243.56;5046366;28;20420;-56
2022/09/16 00:58:04;;;;;;;6.07;1.73;;;;;;;27.37;32.73;100255.88;5098516;27;20463;-56
2022/09/16 01:00:30;;;;;;;7.53;1.70;;;;;;;27.32;32.98;100255.13;5086448;28;20402;-54
2022/09/16 01:02:55;;;;;;;5.25;1.98;;;;;;;27.26;32.81;100249.75;5086864;28;20386;-56
2022/09/16 01:05:25;;;;;;;8.30;1.97;;;;;;;27.20;33.36;100240.00;5086662;28;20795;-55
2022/09/16 01:08:36;;;;;;;6.80;2.17;;;;;;;27.16;33.27;100241.69;5083842;27;20414;-55
2022/09/16 01:15:17;;;;;;;8.43;1.70;;;;;;;27.06;33.23;100253.53;5096088;27;20404;-56
2022/09/16 01:18:24;;;;;;;10.53;2.10;;;;;;;27.07;33.23;100263.28;5086138;28;20395;-56
2022/09/16 01:21:07;;;;;;;7.65;2.00;;;;;;;27.11;32.99;100232.78;5076849;28;20481;-56
2022/09/16 01:23:57;;;;;;;9.32;3.17;;;;;;;27.10;32.98;100248.31;5086567;28;20378;-55
2022/09/16 01:26:51;;;;;;;8.80;2.08;;;;;;;27.09;32.75;100235.78;5086556;28;20378;-56
2022/09/16 01:29:42;;;;;;;7.35;2.50;;;;;;;27.08;32.53;100226.00;5086123;28;20416;-56
2022/09/16 01:32:57;;;;;;;9.20;2.15;;;;;;;27.11;32.50;100244.47;5092201;27;20988;-55
2022/09/16 01:35:37;;;;;;;8.77;1.92;;;;;;;27.13;32.70;100246.91;5086658;28;20399;-55
2022/09/16 01:38:16;;;;;;;8.68;2.10;;;;;;;27.14;32.42;100252.06;5071979;28;20768;-55
2022/09/16 01:40:53;;;;;;;11.52;2.30;;;;;;;27.20;32.39;100275.38;5086678;28;20386;-55
2022/09/16 01:45:37;;;;;;;11.07;2.28;;;;;;;27.23;32.70;100282.16;5096321;27;20424;-56
2022/09/16 01:48:26;;;;;;;11.00;2.27;;;;;;;27.20;32.62;100280.81;5086657;28;21501;-56
2022/09/16 01:50:51;;;;;;;12.90;2.20;;;;;;;27.17;32.89;100278.69;5075720;28;20749;-55
2022/09/16 01:54:07;;;;;;;10.33;2.43;;;;;;;27.10;32.87;100289.13;5082853;28;21154;-56
2022/09/16 01:56:47;;;;;;;12.10;2.30;;;;;;;27.03;33.15;100292.19;5054037;28;20538;-55
2022/09/16 01:59:27;;;;;;;8.52;2.30;;;;;;;26.94;33.50;100293.94;5085258;28;20390;-56
2022/09/16 02:03:54;;;;;;;9.70;2.40;;;;;;;26.81;33.95;100289.16;5075077;28;20459;-56
2022/09/16 02:06:22;;;;;;;14.57;2.50;;;;;;;26.88;34.04;100305.94;5046554;28;20417;-56
2022/09/16 02:12:09;;;;;;;12.35;2.38;;;;;;;26.80;34.42;100322.91;5044826;28;20441;-56
2022/09/16 02:15:21;;;;;;;6.90;1.98;;;;;;;26.74;34.40;100321.34;5089986;27;20468;-56
2022/09/16 02:17:53;;;;;;;11.48;1.95;;;;;;;26.66;34.74;100325.50;5086371;28;20412;-56
2022/09/16 02:20:24;;;;;;;10.32;2.10;;;;;;;26.65;35.10;100326.59;5086155;28;21358;-56
2022/09/16 02:22:57;;;;;;;8.90;2.30;;;;;;;26.59;35.16;100322.28;5086920;28;20890;-57
2022/09/16 02:25:23;;;;;;;10.15;2.42;;;;;;;26.59;35.34;100312.19;5086396;28;20453;-56
2022/09/16 02:27:52;;;;;;;10.17;2.30;;;;;;;26.55;35.40;100302.22;5086597;28;20390;-56
2022/09/16 02:30:20;;;;;;;13.30;2.97;;;;;;;26.56;35.54;100301.09;5086607;28;20409;-56
2022/09/16 02:32:50;;;;;;;9.88;2.33;;;;;;;26.53;35.35;100305.22;5086131;28;20906;-56
2022/09/16 02:35:19;;;;;;;13.05;2.22;;;;;;;26.51;35.31;100304.69;5086263;28;20414;-56
2022/09/16 02:37:54;;;;;;;14.73;2.50;;;;;;;26.48;35.73;100319.66;5086088;28;20444;-56
2022/09/16 02:40:29;;;;;;;8.70;2.08;;;;;;;26.47;35.75;100328.06;5085777;28;20840;-56
2022/09/16 02:43:28;;;;;;;11.55;2.15;;;;;;;26.44;35.85;100318.59;5079714;27;2072003;-55
2022/09/16 02:46:00;;;;;;;9.88;2.20;;;;;;;26.41;35.92;100318.38;5148355;27;20496;-55
2022/09/16 02:48:51;;;;;;;10.43;2.28;;;;;;;26.42;36.21;100317.28;5148268;27;20460;-56
2022/09/16 02:53:31;;;;;;;12.13;2.90;;;;;;;26.38;35.94;100317.03;5085401;27;2033067;-55
2022/09/16 02:56:05;;;;;;;9.97;2.33;;;;;;;26.37;35.73;100320.84;5147880;27;20936;-55
2022/09/16 02:58:30;;;;;;;12.17;2.30;;;;;;;26.36;36.11;100310.25;5147742;27;20485;-56
2022/09/16 03:00:57;;;;;;;12.48;2.22;;;;;;;26.34;35.95;100318.69;5143685;27;20462;-56
2022/09/16 03:03:23;;;;;;;17.40;2.88;;;;;;;26.31;36.02;100311.94;5137368;27;20395;-56
2022/09/16 03:06:08;;;;;;;9.95;2.22;;;;;;;26.34;36.07;100318.69;5147791;27;20875;-55
2022/09/16 03:08:35;;;;;;;10.73;2.38;;;;;;;26.31;36.56;100322.00;5133528;27;20393;-55
2022/09/16 03:11:16;;;;;;;14.63;2.80;;;;;;;26.33;36.58;100325.22;5148024;27;20396;-56
2022/09/16 03:14:15;;;;;;;9.73;2.60;;;;;;;26.29;36.47;100321.47;5147895;27;20454;-56
2022/09/16 03:16:56;;;;;;;13.10;2.53;;;;;;;26.25;36.71;100315.78;5121713;27;20387;-55
2022/09/16 03:19:43;;;;;;;11.82;2.97;;;;;;;26.20;36.58;100304.13;5145773;27;20385;-56
2022/09/16 03:22:17;;;;;;;11.00;2.25;;;;;;;26.17;36.69;100302.00;5137782;27;20385;-56
2022/09/16 03:25:04;;;;;;;10.50;2.05;;;;;;;26.14;36.99;100303.38;5132919;27;20369;-56
2022/09/16 03:29:39;;;;;;;10.98;2.40;;;;;;;26.16;37.36;100328.34;5054765;28;20918;-55
2022/09/16 03:32:16;;;;;;;17.55;2.88;;;;;;;26.18;37.08;100341.66;5032331;28;20481;-55
2022/09/16 03:34:51;;;;;;;12.38;2.70;;;;;;;26.16;37.43;100338.41;5046584;28;20409;-55
2022/09/16 03:37:35;;;;;;;10.95;2.55;;;;;;;26.11;37.71;100350.13;5098495;27;20826;-56
2022/09/16 03:40:07;;;;;;;12.52;2.67;;;;;;;26.09;37.96;100363.16;5081547;28;20401;-56
2022/09/16 03:44:11;;;;;;;11.15;2.47;;;;;;;26.01;37.98;100374.66;5094515;27;20417;-54
2022/09/16 03:47:32;;;;;;;7.22;2.40;;;;;;;26.00;38.15;100378.44;5075011;27;20896;-55
2022/09/16 03:49:57;;;;;;;11.67;2.47;;;;;;;25.86;38.32;100370.91;5047128;28;20413;-55
2022/09/16 03:52:23;;;;;;;6.97;2.10;;;;;;;25.69;38.70;100381.31;5052625;28;20403;-56
2022/09/16 03:55:48;;;;;;;12.93;2.60;;;;;;;25.70;38.91;100381.03;5052928;28;20464;-55
2022/09/16 03:58:13;;;;;;;10.43;2.40;;;;;;;25.66;38.89;100379.13;5040017;28;20407;-55
2022/09/16 04:00:39;;;;;;;8.37;2.30;;;;;;;25.65;39.25;100381.06;5025359;28;20454;-55
2022/09/16 04:03:04;;;;;;;8.63;2.47;;;;;;;25.65;39.35;100385.69;5026094;28;20889;-55
2022/09/16 04:05:30;;;;;;;16.90;3.53;;;;;;;25.62;39.43;100389.75;5026630;28;20920;-55
2022/09/16 04:10:39;;;;;;;9.30;2.40;;;;;;;25.49;40.07;100383.00;5016050;28;20382;-55
2022/09/16 04:13:05;;;;;;;10.68;2.63;;;;;;;25.21;40.45;100392.59;5023732;28;20478;-55
2022/09/16 04:15:30;;;;;;;10.70;2.42;;;;;;;25.02;40.88;100391.56;5016349;28;20946;-55
2022/09/16 04:17:56;;;;;;;10.57;2.37;;;;;;;24.94;41.23;100390.22;5022159;28;20475;-55
2022/09/16 04:20:22;;;;;;;8.80;2.13;;;;;;;24.92;41.65;100382.34;5024934;28;20766;-55
2022/09/16 04:22:48;;;;;;;9.13;2.07;;;;;;;24.94;41.90;100373.97;5019877;28;20387;-55
2022/09/16 04:25:13;;;;;;;7.68;2.20;;;;;;;24.98;42.07;100383.16;5025376;28;20398;-55
2022/09/16 04:27:39;;;;;;;8.70;2.50;;;;;;;25.04;42.22;100379.34;5024923;28;20399;-55
2022/09/16 04:30:05;;;;;;;9.33;2.40;;;;;;;25.21;41.83;100380.91;5023776;28;20417;-55
2022/09/16 04:32:30;;;;;;;12.98;2.47;;;;;;;25.25;41.86;100387.47;5024816;28;20925;-54
2022/09/16 04:34:56;;;;;;;18.10;3.50;;;;;;;25.30;42.03;100390.97;5023305;28;20423;-55
2022/09/16 04:37:21;;;;;;;18.80;3.53;;;;;;;25.37;42.01;100394.19;5018430;28;20409;-55
2022/09/16 04:39:47;;;;;;;15.25;3.17;;;;;;;25.55;41.76;100389.22;5010904;28;20819;-55
2022/09/16 04:42:12;;;;;;;14.13;3.23;;;;;;;25.74;41.48;100384.00;5012474;28;20400;-55
2022/09/16 04:44:38;;;;;;;16.73;3.00;;;;;;;25.96;41.53;100386.34;5013144;28;20389;-54
2022/09/16 04:47:04;;;;;;;14.13;3.47;;;;;;;26.24;41.17;100390.25;5009704;28;20402;-55
2022/09/16 04:49:29;;;;;;;10.27;3.30;;;;;;;26.40;41.05;100382.78;5020644;28;20914;-55
2022/09/16 04:51:55;;;;;;;10.17;3.23;;;;;;;26.51;40.36;100378.06;5012042;28;20385;-55
2022/09/16 04:54:20;;;;;;;11.60;2.92;;;;;;;26.75;40.32;100382.78;5017182;28;20897;-55
2022/09/16 04:56:46;;;;;;;11.15;3.95;;;;;;;26.92;39.66;100390.50;5011308;28;20871;-55
2022/09/16 04:59:11;;;;;;;12.97;3.87;;;;;;;27.02;39.89;100379.53;5019972;28;20388;-55
2022/09/16 05:01:38;;;;;;;10.67;3.73;;;;;;;27.31;39.39;100389.56;5014035;28;20393;-55
2022/09/16 05:04:06;;;;;;;8.65;3.58;;;;;;;27.59;38.56;100390.59;5020624;28;20411;-55
2022/09/16 05:06:39;;;;;;;12.63;5.60;;;;;;;27.89;38.17;100383.91;5004878;28;20444;-56
2022/09/16 05:09:05;;;;;;;14.38;6.18;;;;;;;28.16;37.74;100386.00;4996134;28;20416;-54
2022/09/16 05:11:34;;;;;;;12.15;5.10;;;;;;;28.41;37.30;100382.06;5004489;28;20423;-55
2022/09/16 05:14:02;;;;;;;9.25;3.35;;;;;;;28.59;37.00;100385.91;4996285;28;20424;-56
2022/09/16 05:16:28;;;;;;;9.23;3.33;;;;;;;28.70;36.57;100381.06;5007692;28;20377;-55
2022/09/16 05:18:55;;;;;;;12.18;2.95;;;;;;;28.88;36.18;100378.56;5006763;28;20384;-55
2022/09/16 05:21:23;;;;;;;9.85;2.90;;;;;;;29.13;35.83;100375.34;5002934;28;20579;-55
2022/09/16 05:23:49;;;;;;;11.25;3.08;;;;;;;29.26;35.82;100370.22;5001758;28;20396;-55
2022/09/16 05:26:21;;;;;;;9.27;3.10;;;;;;;29.39;35.46;100374.88;5004417;28;20388;-56
2022/09/16 05:28:47;;;;;;;8.87;2.70;;;;;;;29.47;35.30;100374.13;5008326;28;20396;-55
2022/09/16 05:31:15;;;;;;;17.40;3.10;;;;;;;29.66;35.21;100387.69;5006359;28;20392;-54
2022/09/16 05:33:43;;;;;;;11.77;2.60;;;;;;;29.97;34.61;100388.94;5007854;28;20466;-54
2022/09/16 05:36:14;;;;;;;7.78;1.95;;;;;;;30.24;34.17;100377.09;5006584;28;20894;-55
2022/09/16 05:38:40;;;;;;;6.50;2.00;;;;;;;30.65;33.42;100370.63;5004729;28;20894;-55
2022/09/16 05:41:06;;;;;;;15.83;2.33;;;;;;;30.96;32.92;100365.16;5005249;28;20400;-55
2022/09/16 05:43:32;;;;;;;9.48;2.30;;;;;;;31.29;32.64;100361.25;5008313;28;20543;-55
2022/09/16 05:45:58;;;;;;;11.03;1.90;;;;;;;31.60;32.15;100353.78;5005909;28;20389;-54
2022/09/16 05:48:24;;;;;;;6.13;1.70;;;;;;;31.98;31.11;100366.84;5006141;28;20381;-55
2022/09/16 05:50:54;;;;;;;9.05;2.00;;;;;;;32.28;31.05;100367.00;5006073;28;20403;-55
2022/09/16 05:53:20;;;;;;;6.38;2.00;;;;;;;32.55;30.42;100373.25;5006234;28;20380;-56
2022/09/16 05:56:00;;;;;;;8.57;2.08;;;;;;;32.82;30.16;100371.25;5008010;28;20466;-55
2022/09/16 05:58:27;;;;;;;7.53;1.83;;;;;;;33.16;29.65;100370.31;5006541;28;20420;-55
2022/09/16 06:01:06;;;;;;;8.75;2.30;;;;;;;33.48;29.09;100374.34;5004980;28;20392;-55
2022/09/16 06:03:33;;;;;;;5.32;1.77;;;;;;;33.79;28.61;100370.41;5000251;28;20381;-56
2022/09/16 06:06:04;;;;;;;5.93;1.80;;;;;;;34.04;28.30;100379.59;4999395;28;20832;-56
2022/09/16 06:08:32;;;;;;;7.00;2.20;;;;;;;34.35;27.76;100377.56;5005020;28;20384;-55
2022/09/16 06:11:02;;;;;;;8.10;2.50;;;;;;;34.58;27.59;100384.28;5008566;28;20417;-56
2022/09/16 06:13:28;;;;;;;11.82;2.00;;;;;;;34.75;27.28;100379.75;5001348;28;20398;-55
2022/09/16 06:15:53;;;;;;;9.85;2.10;;;;;;;34.84;27.22;100378.50;5001852;28;20390;-56
2022/09/16 06:18:20;;;;;;;8.57;2.40;;;;;;;35.17;26.77;100376.81;4999929;28;20417;-56
2022/09/16 06:20:46;;;;;;;6.55;1.85;;;;;;;35.48;25.89;100378.97;4998071;28;20850;-56
2022/09/16 06:23:12;;;;;;;16.23;2.40;;;;;;;35.92;25.61;100378.31;5006211;28;20424;-56
2022/09/16 06:25:38;;;;;;;11.23;2.22;;;;;;;36.25;25.15;100374.50;4999867;28;20491;-56
2022/09/16 06:28:04;;;;;;;6.93;1.90;;;;;;;36.88;23.94;100374.59;4991251;28;20494;-56
2022/09/16 06:30:29;;;;;;;9.90;1.70;;;;;;;37.33;23.34;100366.19;4994866;28;20392;-56
2022/09/16 06:32:55;;;;;;;7.38;1.77;;;;;;;38.49;21.97;100386.75;5002449;28;20465;-56
2022/09/16 06:35:20;;;;;;;5.78;1.60;;;;;;;39.78;20.70;100374.94;4994856;28;20759;-56
2022/09/16 06:37:46;;;;;;;5.80;1.65;;;;;;;40.87;19.56;100378.44;4992720;28;20425;-56
2022/09/16 06:40:11;;;;;;;5.77;1.50;;;;;;;41.76;18.56;100374.66;4991923;28;20441;-57
2022/09/16 06:42:37;;;;;;;7.33;1.53;;;;;;;42.44;17.74;100354.53;4998730;28;20395;-57
2022/09/16 06:45:03;;;;;;;8.83;1.73;;;;;;;42.97;17.31;100344.59;5002910;28;20382;-57
2022/09/16 06:47:32;;;;;;;6.78;1.58;;;;;;;43.14;17.07;100340.16;4998374;28;20386;-56
2022/09/16 06:50:01;;;;;;;9.77;2.05;;;;;;;43.77;16.23;100345.16;5003481;28;20415;-56
2022/09/16 06:52:27;;;;;;;5.15;1.70;;;;;;;44.47;16.03;100343.09;5001637;28;20384;-55
2022/09/16 06:54:53;;;;;;;6.50;1.50;;;;;;;45.01;15.23;100333.47;4995346;28;20484;-56
2022/09/16 06:57:21;;;;;;;5.20;1.50;;;;;;;45.05;15.15;100337.03;4997441;28;21012;-56
2022/09/16 06:59:47;;;;;;;7.85;2.08;;;;;;;44.86;15.35;100327.22;5000242;28;20752;-57
2022/09/16 07:02:13;;;;;;;7.23;2.40;;;;;;;44.33;15.26;100325.66;4994117;28;20444;-57
2022/09/16 07:04:39;;;;;;;5.30;1.87;;;;;;;43.28;16.76;100326.19;4992727;28;20378;-54
2022/09/16 07:07:05;;;;;;;4.93;1.70;;;;;;;41.76;18.17;100320.97;5003433;28;20912;-57
2022/09/16 07:09:31;;;;;;;6.20;1.83;;;;;;;40.82;18.77;100327.97;5001903;28;20389;-56
2022/09/16 07:11:58;;;;;;;6.30;1.80;;;;;;;40.13;19.45;100332.09;4998375;28;20468;-56
2022/09/16 07:14:24;;;;;;;7.35;1.65;;;;;;;39.45;20.29;100334.03;4995134;28;20407;-56
2022/09/16 07:16:51;;;;;;;5.28;2.08;;;;;;;38.90;20.96;100335.22;5004739;28;20421;-56
2022/09/16 07:19:16;;;;;;;7.05;1.83;;;;;;;38.75;21.01;100345.31;4996587;28;20595;-56
2022/09/16 07:21:42;;;;;;;4.63;1.60;;;;;;;38.18;21.30;100347.84;4993503;28;20484;-57
2022/09/16 07:24:11;;;;;;;3.73;1.70;;;;;;;37.98;21.64;100352.56;5003524;28;20467;-56
2022/09/16 07:26:38;;;;;;;7.43;1.88;;;;;;;37.49;21.83;100350.34;4997323;28;20400;-56
2022/09/16 07:29:06;;;;;;;8.48;2.20;;;;;;;37.25;22.30;100345.88;5001642;28;20460;-56
2022/09/16 07:31:35;;;;;;;4.75;1.83;;;;;;;37.06;22.65;100341.06;4992812;28;20411;-56
2022/09/16 07:34:01;;;;;;;4.43;1.90;;;;;;;37.02;23.65;100348.47;4997652;28;20459;-56
2022/09/16 07:36:32;;;;;;;4.93;1.42;;;;;;;36.87;22.85;100345.38;4995931;28;20385;-56
2022/09/16 07:38:58;;;;;;;5.47;1.38;;;;;;;36.71;23.06;100347.34;4992602;28;20397;-56
2022/09/16 07:41:27;;;;;;;4.38;1.70;;;;;;;36.59;23.80;100347.38;5003835;28;20436;-56
2022/09/16 07:43:54;;;;;;;6.35;1.60;;;;;;;36.46;23.61;100350.22;4999287;28;20380;-56
2022/09/16 07:46:20;;;;;;;5.65;1.50;;;;;;;36.21;24.16;100351.53;4992843;28;20394;-57
2022/09/16 07:48:48;;;;;;;4.25;1.50;;;;;;;35.72;24.26;100356.06;5005521;28;20396;-55
2022/09/16 07:51:17;;;;;;;2.70;1.30;;;;;;;35.20;25.17;100354.06;4996995;28;20393;-56
2022/09/16 07:53:44;;;;;;;6.15;1.58;;;;;;;35.09;25.09;100358.44;4995106;28;20414;-55
2022/09/16 07:56:13;;;;;;;5.85;1.42;;;;;;;34.74;25.28;100359.69;4995160;28;20472;-56
2022/09/16 07:58:40;;;;;;;6.68;1.60;;;;;;;34.46;25.98;100353.97;4992895;28;20422;-55
2022/09/16 08:01:06;;;;;;;4.75;1.48;;;;;;;34.39;26.31;100362.78;4993626;28;20432;-56
2022/09/16 08:03:36;;;;;;;7.03;1.58;;;;;;;34.42;26.16;100372.31;4991437;28;20423;-56
2022/09/16 08:06:23;;;;;;;7.03;1.67;;;;;;;34.35;26.40;100366.56;5000523;28;20456;-56
2022/09/16 08:08:51;;;;;;;5.80;1.37;;;;;;;34.16;26.52;100361.53;4995759;28;20784;-56
2022/09/16 08:11:17;;;;;;;4.30;1.40;;;;;;;34.05;26.94;100359.22;5000042;28;20450;-56
2022/09/16 08:13:43;;;;;;;5.20;1.70;;;;;;;33.94;27.09;100352.50;4999070;28;20380;-56
2022/09/16 08:16:17;;;;;;;6.97;1.70;;;;;;;33.64;27.19;100351.78;5005533;28;20423;-56
2022/09/16 08:18:43;;;;;;;4.05;1.50;;;;;;;33.39;27.49;100356.31;5004668;28;20394;-55
2022/09/16 08:21:15;;;;;;;5.32;1.70;;;;;;;33.12;28.32;100358.38;5003702;28;20466;-56
2022/09/16 08:23:41;;;;;;;5.38;1.92;;;;;;;32.93;28.55;100350.53;4995496;28;20483;-55
2022/09/16 08:26:09;;;;;;;8.03;2.03;;;;;;;32.78;28.88;100349.16;4992489;28;20473;-56
2022/09/16 08:28:36;;;;;;;4.65;1.45;;;;;;;32.64;28.85;100352.09;4990726;28;20409;-57
2022/09/16 08:31:03;;;;;;;15.50;3.65;;;;;;;32.48;29.88;100353.72;4989851;28;20779;-56
2022/09/16 08:33:28;;;;;;;10.83;2.23;;;;;;;32.43;29.79;100362.97;4992144;28;20400;-54
2022/09/16 08:36:03;;;;;;;22.20;3.67;;;;;;;32.33;30.12;100353.13;4995918;28;20403;-54
2022/09/16 08:38:29;;;;;;;7.38;1.90;;;;;;;32.17;29.73;100349.28;4999969;28;20409;-54
2022/09/16 08:41:24;;;;;;;6.30;1.60;;;;;;;32.11;29.80;100348.63;5001048;28;20415;-57
2022/09/16 08:43:56;;;;;;;10.60;2.03;;;;;;;32.08;30.13;100338.31;4997957;28;20423;-57
2022/09/16 08:46:35;;;;;;;7.50;2.22;;;;;;;32.02;30.27;100336.84;4999834;28;20393;-54
2022/09/16 08:49:38;;;;;;;8.50;1.90;;;;;;;31.91;30.12;100336.38;5002045;28;20881;-56
2022/09/16 08:52:13;;;;;;;4.93;2.03;;;;;;;31.94;30.52;100323.94;4997754;28;20393;-57
2022/09/16 08:54:44;;;;;;;5.43;1.70;;;;;;;31.99;30.07;100324.56;4995519;28;20993;-57
2022/09/16 08:57:18;;;;;;;6.03;2.10;;;;;;;32.07;31.05;100319.44;5003473;28;20397;-57
2022/09/16 08:59:52;;;;;;;8.18;2.05;;;;;;;32.11;30.69;100328.66;5001020;28;20472;-56
2022/09/16 09:02:27;;;;;;;9.40;1.90;;;;;;;32.04;30.17;100320.09;5000738;28;20393;-56
2022/09/16 09:04:53;;;;;;;13.25;2.42;;;;;;;32.04;30.69;100320.91;5003240;28;20391;-57
2022/09/16 09:07:27;;;;;;;9.93;2.10;;;;;;;32.06;30.37;100326.88;5000132;28;20814;-56
2022/09/16 09:10:25;;;;;;;13.68;2.50;;;;;;;32.07;30.65;100327.66;5001149;28;20822;-56
2022/09/16 09:13:18;;;;;;;12.48;1.90;;;;;;;32.13;30.35;100320.91;4997687;28;20710;-56
2022/09/16 09:15:53;;;;;;;7.72;2.15;;;;;;;32.29;30.01;100326.69;4996800;28;20487;-56
2022/09/16 09:18:48;;;;;;;10.68;2.13;;;;;;;32.38;30.03;100322.78;4997221;28;20390;-56
2022/09/16 09:21:30;;;;;;;9.53;1.60;;;;;;;32.46;29.94;100326.63;5004057;28;20742;-56
2022/09/16 09:24:02;;;;;;;12.55;1.70;;;;;;;32.46;29.30;100318.38;4996420;28;20420;-56
2022/09/16 09:26:51;;;;;;;5.65;1.40;;;;;;;32.55;29.52;100319.16;4998231;28;20532;-56
2022/09/16 09:29:23;;;;;;;4.85;1.73;;;;;;;32.67;29.28;100326.75;5005073;28;20406;-55
2022/09/16 09:32:30;;;;;;;7.77;1.60;;;;;;;32.74;29.24;100313.31;4997519;28;20401;-57
2022/09/16 09:35:09;;;;;;;12.63;1.75;;;;;;;32.86;29.06;100314.56;4997761;28;20429;-57
2022/09/16 09:37:49;;;;;;;4.93;1.42;;;;;;;32.91;29.20;100309.66;4998529;28;20404;-57
2022/09/16 09:40:23;;;;;;;7.95;3.28;;;;;;;33.03;28.89;100310.94;4997265;28;20942;-54
2022/09/16 09:43:17;;;;;;;10.02;2.75;;;;;;;33.16;28.84;100311.84;4997914;28;20824;-56
2022/09/16 09:45:57;;;;;;;9.18;2.60;;;;;;;33.27;28.86;100313.84;5001627;28;20395;-56
2022/09/16 09:48:29;;;;;;;10.45;2.13;;;;;;;33.28;28.37;100309.97;4996078;28;20397;-57
2022/09/16 09:51:00;;;;;;;6.40;1.70;;;;;;;33.28;28.38;100309.97;4997737;28;20398;-56
2022/09/16 09:53:34;;;;;;;8.87;1.80;;;;;;;33.38;28.07;100317.00;5000864;28;20444;-56
2022/09/16 09:56:21;;;;;;;10.25;2.20;;;;;;;33.34;27.70;100310.59;4994983;28;20393;-56
2022/09/16 09:58:52;;;;;;;6.13;1.75;;;;;;;33.38;27.12;100303.28;4994362;28;20903;-56
2022/09/16 10:01:18;;;;;;;4.72;1.58;;;;;;;33.37;27.19;100300.88;5010283;28;20387;-56
2022/09/16 10:04:00;;;;;;;8.05;1.60;;;;;;;33.39;27.16;100307.66;5080857;27;20982;-56
2022/09/16 10:06:32;;;;;;;4.20;1.42;;;;;;;33.41;27.49;100297.13;5077219;28;20399;-57
2022/09/16 10:08:57;;;;;;;6.83;1.50;;;;;;;33.43;27.21;100292.09;5071536;28;21485;-56
2022/09/16 10:11:26;;;;;;;6.32;1.75;;;;;;;33.49;27.64;100295.44;5075052;28;20388;-56
2022/09/16 10:13:54;;;;;;;6.78;1.60;;;;;;;33.50;27.03;100289.63;5070696;28;20388;-56
2022/09/16 10:16:23;;;;;;;3.97;1.47;;;;;;;33.53;27.36;100283.47;5071608;28;20391;-56
2022/09/16 10:19:03;;;;;;;8.45;1.50;;;;;;;33.53;27.20;100277.16;5073430;28;20399;-56
2022/09/16 10:21:49;;;;;;;8.25;2.10;;;;;;;33.45;27.41;100278.81;5077323;28;20394;-56
2022/09/16 10:24:33;;;;;;;5.65;1.88;;;;;;;33.47;27.47;100273.00;5076751;28;20402;-56
2022/09/16 10:27:00;;;;;;;8.43;1.90;;;;;;;33.45;27.16;100267.03;5074554;28;20765;-56
2022/09/16 10:29:27;;;;;;;6.05;1.60;;;;;;;33.43;27.55;100270.13;5074972;28;20814;-57
2022/09/16 10:31:53;;;;;;;8.17;1.80;;;;;;;33.44;27.63;100271.72;5073802;28;20428;-56
2022/09/16 10:34:22;;;;;;;6.53;1.85;;;;;;;33.41;27.57;100275.16;5076649;28;20925;-56
2022/09/16 10:36:59;;;;;;;8.80;1.93;;;;;;;33.37;27.77;100268.72;5074911;28;20893;-56
2022/09/16 10:39:27;;;;;;;4.80;1.52;;;;;;;33.37;27.55;100262.41;5075154;28;20394;-57
2022/09/16 10:41:52;;;;;;;6.28;1.52;;;;;;;33.39;27.94;100262.91;5084946;28;20414;-56
2022/09/16 10:44:30;;;;;;;7.53;1.90;;;;;;;33.38;27.64;100261.28;5072917;28;20374;-57
2022/09/16 10:47:07;;;;;;;7.18;1.67;;;;;;;33.32;28.05;100250.47;5085110;28;20880;-57
2022/09/16 10:49:56;;;;;;;8.02;1.98;;;;;;;33.39;27.89;100252.69;5089929;28;20730;-56
2022/09/16 10:52:28;;;;;;;4.55;1.48;;;;;;;33.43;28.31;100239.88;5083508;28;20841;-57
2022/09/16 10:54:54;;;;;;;9.15;1.90;;;;;;;33.47;28.27;100229.03;5079647;28;20375;-56
2022/09/16 10:57:21;;;;;;;7.05;1.83;;;;;;;33.47;28.51;100224.31;5075891;28;20388;-56
2022/09/16 11:00:00;;;;;;;11.13;2.50;;;;;;;33.52;27.90;100217.84;5085319;28;20431;-55
2022/09/16 11:03:03;;;;;;;5.32;1.98;;;;;;;33.51;27.77;100217.03;5085169;28;20422;-55
2022/09/16 11:05:34;;;;;;;6.00;2.20;;;;;;;33.51;27.55;100208.78;5073414;28;20537;-56
2022/09/16 11:08:38;;;;;;;5.75;1.85;;;;;;;33.41;27.42;100206.47;5072257;28;20493;-56
2022/09/16 11:11:09;;;;;;;7.88;1.92;;;;;;;33.42;28.01;100199.84;5090621;28;20427;-56
2022/09/16 11:13:56;;;;;;;9.43;2.60;;;;;;;33.27;27.80;100194.94;5074693;28;20393;-56
2022/09/16 11:16:58;;;;;;;7.65;1.80;;;;;;;33.12;28.08;100197.16;5056837;28;20392;-56
2022/09/16 11:20:01;;;;;;;9.00;2.42;;;;;;;33.09;28.74;100207.97;5065573;28;20379;-55
2022/09/16 11:22:52;;;;;;;9.23;2.30;;;;;;;33.07;28.61;100207.50;5058982;28;20418;-55
2022/09/16 11:25:52;;;;;;;8.90;2.00;;;;;;;33.01;28.75;100206.09;5067907;28;20393;-56
2022/09/16 11:28:32;;;;;;;7.33;2.27;;;;;;;32.96;28.69;100201.63;5067644;28;20405;-55
2022/09/16 11:31:25;;;;;;;6.65;1.85;;;;;;;32.95;29.05;100198.06;5068251;28;20482;-54
2022/09/16 11:34:18;;;;;;;7.75;2.20;;;;;;;32.94;29.39;100199.19;5068100;28;20427;-55
2022/09/16 11:37:09;;;;;;;7.22;2.20;;;;;;;32.91;28.97;100185.34;5067830;28;20900;-56
2022/09/16 11:39:37;;;;;;;7.53;2.20;;;;;;;32.87;29.29;100187.94;5067427;28;20780;-56
2022/09/16 11:42:16;;;;;;;8.73;2.47;;;;;;;32.87;29.47;100189.88;5066658;28;20927;-56
2022/09/16 11:45:15;;;;;;;9.35;3.03;;;;;;;32.92;29.41;100190.50;5070226;28;20451;-56
2022/09/16 11:48:04;;;;;;;9.73;2.92;;;;;;;32.89;29.63;100188.41;5061852;28;20388;-56
2022/09/16 11:50:40;;;;;;;6.22;1.90;;;;;;;32.91;29.59;100191.63;5068054;28;20418;-56
2022/09/16 11:53:41;;;;;;;7.47;2.13;;;;;;;32.86;29.88;100177.28;5069719;28;20389;-55
2022/09/16 11:56:23;;;;;;;7.43;2.45;;;;;;;32.82;30.02;100174.41;5031077;28;20412;-55
2022/09/16 11:58:54;;;;;;;8.63;2.38;;;;;;;32.82;29.96;100168.91;5064902;28;20467;-55
2022/09/16 12:01:35;;;;;;;8.48;2.30;;;;;;;32.78;29.57;100159.75;5070626;28;20880;-55
2022/09/16 12:04:44;;;;;;;8.32;2.28;;;;;;;32.81;29.77;100170.06;5069517;28;20395;-55
2022/09/16 12:07:16;;;;;;;5.57;2.13;;;;;;;32.75;29.62;100158.50;5044041;28;20392;-56
2022/09/16 12:10:15;;;;;;;6.13;2.20;;;;;;;32.73;30.01;100157.19;5064134;28;20513;-55
2022/09/16 12:12:51;;;;;;;9.35;2.20;;;;;;;32.65;30.37;100150.63;5061224;28;20764;-55
2022/09/16 12:15:33;;;;;;;10.70;2.30;;;;;;;32.41;31.27;100153.97;5068517;28;20411;-55
2022/09/16 12:18:07;;;;;;;11.57;2.10;;;;;;;32.42;31.47;100149.31;5064176;28;20399;-55
2022/09/16 12:20:39;;;;;;;10.88;2.40;;;;;;;32.48;31.28;100154.25;5080863;28;20409;-56
2022/09/16 12:23:17;;;;;;;7.83;1.87;;;;;;;32.58;30.83;100148.41;5069971;28;20415;-55